sensor_id;sensor_type;location;lat;lon;timestamp;pressure;altitude;pressure_sealevel;temperature;humidity
68594;BME280;55563;52.416;13.548;2024-01-07T00:00:09;101372.22;;;-1.32;100.00
68594;BME280;55563;52.416;13.548;2024-01-07T00:02:09;101380.94;;;-1.33;100.00
68594;BME280;55563;52.416;13.548;2024-01-07T00:04:10;101369.00;;;-1.34;100.00
68594;BME280;55563;52.416;13.548;2024-01-07T00:06:10;101376.56;;;-1.24;100.00
68594;BME280;55563;52.416;13.548;2024-01-07T00:08:11;101380.59;;;-1.21;100.00
68594;BME280;55563;52.416;13.548;2024-01-07T00:10:12;101382.72;;;-1.25;100.00
68594;BME280;55563;52.416;13.548;2024-01-07T00:12:12;101386.56;;;-1.37;100.00
68594;BME280;55563;52.416;13.548;2024-01-07T00:14:15;101389.78;;;-1.27;100.00
68594;BME280;55563;52.416;13.548;2024-01-07T00:16:15;101379.97;;;-1.40;100.00
68594;BME280;55563;52.416;13.548;2024-01-07T00:18:16;101387.53;;;-1.38;100.00
68594;BME280;55563;52.416;13.548;2024-01-07T00:20:16;101385.78;;;-1.46;100.00
68594;BME280;55563;52.416;13.548;2024-01-07T00:22:17;101381.25;;;-1.44;100.00
68594;BME280;55563;52.416;13.548;2024-01-07T00:24:18;101389.47;;;-1.32;100.00
68594;BME280;55563;52.416;13.548;2024-01-07T00:26:19;101378.22;;;-1.39;100.00
68594;BME280;55563;52.416;13.548;2024-01-07T00:28:19;101394.97;;;-1.35;100.00
68594;BME280;55563;52.416;13.548;2024-01-07T00:30:20;101383.38;;;-1.39;100.00
68594;BME280;55563;52.416;13.548;2024-01-07T00:32:20;101383.38;;;-1.39;100.00
68594;BME280;55563;52.416;13.548;2024-01-07T00:34:21;101388.53;;;-1.39;100.00
68594;BME280;55563;52.416;13.548;2024-01-07T00:36:22;101396.56;;;-1.42;100.00
68594;BME280;55563;52.416;13.548;2024-01-07T00:38:22;101399.28;;;-1.44;100.00
68594;BME280;55563;52.416;13.548;2024-01-07T00:40:23;101393.84;;;-1.41;100.00
68594;BME280;55563;52.416;13.548;2024-01-07T00:42:23;101413.50;;;-1.40;100.00
68594;BME280;55563;52.416;13.548;2024-01-07T00:44:24;101408.19;;;-1.30;100.00
68594;BME280;55563;52.416;13.548;2024-01-07T00:46:24;101413.16;;;-1.37;100.00
68594;BME280;55563;52.416;13.548;2024-01-07T00:48:25;101414.47;;;-1.49;100.00
68594;BME280;55563;52.416;13.548;2024-01-07T00:50:26;101429.25;;;-1.43;100.00
68594;BME280;55563;52.416;13.548;2024-01-07T00:52:26;101420.56;;;-1.42;100.00
68594;BME280;55563;52.416;13.548;2024-01-07T00:54:27;101415.88;;;-1.38;100.00
68594;BME280;55563;52.416;13.548;2024-01-07T00:56:27;101434.28;;;-1.49;100.00
68594;BME280;55563;52.416;13.548;2024-01-07T00:58:28;101425.88;;;-1.51;100.00
68594;BME280;55563;52.416;13.548;2024-01-07T01:00:29;101426.06;;;-1.45;100.00
68594;BME280;55563;52.416;13.548;2024-01-07T01:02:30;101432.66;;;-1.34;100.00
68594;BME280;55563;52.416;13.548;2024-01-07T01:04:30;101441.19;;;-1.42;100.00
68594;BME280;55563;52.416;13.548;2024-01-07T01:06:31;101438.94;;;-1.37;100.00
68594;BME280;55563;52.416;13.548;2024-01-07T01:08:31;101435.84;;;-1.48;100.00
68594;BME280;55563;52.416;13.548;2024-01-07T01:10:32;101449.41;;;-1.46;100.00
68594;BME280;55563;52.416;13.548;2024-01-07T01:12:32;101446.97;;;-1.56;100.00
68594;BME280;55563;52.416;13.548;2024-01-07T01:14:33;101441.69;;;-1.54;100.00
68594;BME280;55563;52.416;13.548;2024-01-07T01:16:33;101446.50;;;-1.59;100.00
68594;BME280;55563;52.416;13.548;2024-01-07T01:18:34;101442.97;;;-1.58;100.00
68594;BME280;55563;52.416;13.548;2024-01-07T01:20:35;101457.25;;;-1.72;100.00
68594;BME280;55563;52.416;13.548;2024-01-07T01:22:35;101453.41;;;-1.68;100.00
68594;BME280;55563;52.416;13.548;2024-01-07T01:24:36;101459.34;;;-1.67;100.00
68594;BME280;55563;52.416;13.548;2024-01-07T01:26:36;101459.88;;;-1.64;100.00
68594;BME280;55563;52.416;13.548;2024-01-07T01:28:38;101464.22;;;-1.64;100.00
68594;BME280;55563;52.416;13.548;2024-01-07T01:30:38;101470.31;;;-1.65;100.00
68594;BME280;55563;52.416;13.548;2024-01-07T01:32:39;101472.72;;;-1.72;100.00
68594;BME280;55563;52.416;13.548;2024-01-07T01:34:40;101484.78;;;-1.72;100.00
68594;BME280;55563;52.416;13.548;2024-01-07T01:36:41;101472.22;;;-1.84;100.00
68594;BME280;55563;52.416;13.548;2024-01-07T01:38:41;101476.09;;;-1.80;100.00
68594;BME280;55563;52.416;13.548;2024-01-07T01:40:42;101476.56;;;-1.84;100.00
68594;BME280;55563;52.416;13.548;2024-01-07T01:42:43;101477.38;;;-1.84;100.00
68594;BME280;55563;52.416;13.548;2024-01-07T01:44:45;101477.69;;;-1.79;100.00
68594;BME280;55563;52.416;13.548;2024-01-07T01:46:46;101485.56;;;-1.80;100.00
68594;BME280;55563;52.416;13.548;2024-01-07T01:48:47;101497.63;;;-1.89;100.00
68594;BME280;55563;52.416;13.548;2024-01-07T01:50:48;101488.28;;;-1.90;100.00
68594;BME280;55563;52.416;13.548;2024-01-07T01:52:49;101490.50;;;-2.03;100.00
68594;BME280;55563;52.416;13.548;2024-01-07T01:54:49;101494.06;;;-1.96;100.00
68594;BME280;55563;52.416;13.548;2024-01-07T01:56:50;101498.41;;;-1.96;100.00
68594;BME280;55563;52.416;13.548;2024-01-07T01:58:51;101513.84;;;-1.96;100.00
68594;BME280;55563;52.416;13.548;2024-01-07T02:00:52;101489.03;;;-2.05;100.00
68594;BME280;55563;52.416;13.548;2024-01-07T02:02:52;101501.28;;;-1.99;100.00
68594;BME280;55563;52.416;13.548;2024-01-07T02:04:53;101513.34;;;-2.00;100.00
68594;BME280;55563;52.416;13.548;2024-01-07T02:06:55;101502.09;;;-1.99;100.00
68594;BME280;55563;52.416;13.548;2024-01-07T02:08:56;101502.72;;;-2.05;100.00
68594;BME280;55563;52.416;13.548;2024-01-07T02:10:56;101500.91;;;-2.12;100.00
68594;BME280;55563;52.416;13.548;2024-01-07T02:12:57;101495.31;;;-2.08;100.00
68594;BME280;55563;52.416;13.548;2024-01-07T02:14:58;101514.59;;;-2.12;100.00
68594;BME280;55563;52.416;13.548;2024-01-07T02:16:59;101516.84;;;-2.17;100.00
68594;BME280;55563;52.416;13.548;2024-01-07T02:18:59;101515.22;;;-2.18;100.00
68594;BME280;55563;52.416;13.548;2024-01-07T02:21:00;101513.59;;;-2.19;100.00
68594;BME280;55563;52.416;13.548;2024-01-07T02:23:00;101511.97;;;-2.20;100.00
68594;BME280;55563;52.416;13.548;2024-01-07T02:25:01;101506.53;;;-2.17;100.00
68594;BME280;55563;52.416;13.548;2024-01-07T02:27:02;101523.88;;;-2.19;100.00
68594;BME280;55563;52.416;13.548;2024-01-07T02:29:03;101525.31;;;-2.25;100.00
68594;BME280;55563;52.416;13.548;2024-01-07T02:31:03;101517.06;;;-2.36;100.00
68594;BME280;55563;52.416;13.548;2024-01-07T02:33:04;101542.34;;;-2.32;100.00
68594;BME280;55563;52.416;13.548;2024-01-07T02:35:05;101525.41;;;-2.34;100.00
68594;BME280;55563;52.416;13.548;2024-01-07T02:37:06;101520.44;;;-2.36;100.00
68594;BME280;55563;52.416;13.548;2024-01-07T02:39:06;101520.78;;;-2.31;100.00
68594;BME280;55563;52.416;13.548;2024-01-07T02:41:07;101524.56;;;-2.43;100.00
68594;BME280;55563;52.416;13.548;2024-01-07T02:43:08;101527.63;;;-2.39;100.00
68594;BME280;55563;52.416;13.548;2024-01-07T02:45:09;101517.28;;;-2.47;100.00
68594;BME280;55563;52.416;13.548;2024-01-07T02:47:09;101536.06;;;-2.55;100.00
68594;BME280;55563;52.416;13.548;2024-01-07T02:49:10;101536.88;;;-2.54;100.00
68594;BME280;55563;52.416;13.548;2024-01-07T02:51:11;101526.81;;;-2.66;100.00
68594;BME280;55563;52.416;13.548;2024-01-07T02:53:11;101533.28;;;-2.61;100.00
68594;BME280;55563;52.416;13.548;2024-01-07T02:55:13;101536.66;;;-2.61;100.00
68594;BME280;55563;52.416;13.548;2024-01-07T02:57:14;101530.84;;;-2.63;100.00
68594;BME280;55563;52.416;13.548;2024-01-07T02:59:14;101559.16;;;-2.63;100.00
68594;BME280;55563;52.416;13.548;2024-01-07T03:01:15;101547.41;;;-2.66;100.00
68594;BME280;55563;52.416;13.548;2024-01-07T03:03:15;101571.28;;;-2.73;100.00
68594;BME280;55563;52.416;13.548;2024-01-07T03:05:16;101543.31;;;-2.76;100.00
68594;BME280;55563;52.416;13.548;2024-01-07T03:07:17;101540.59;;;-2.75;100.00
68594;BME280;55563;52.416;13.548;2024-01-07T03:09:17;101551.69;;;-2.74;100.00
68594;BME280;55563;52.416;13.548;2024-01-07T03:11:18;101546.03;;;-2.78;100.00
68594;BME280;55563;52.416;13.548;2024-01-07T03:13:19;101550.53;;;-2.80;100.00
68594;BME280;55563;52.416;13.548;2024-01-07T03:15:19;101545.38;;;-2.80;100.00
68594;BME280;55563;52.416;13.548;2024-01-07T03:17:20;101545.75;;;-2.75;100.00
68594;BME280;55563;52.416;13.548;2024-01-07T03:19:22;101547.28;;;-2.82;100.00
68594;BME280;55563;52.416;13.548;2024-01-07T03:21:23;101550.78;;;-2.83;100.00
68594;BME280;55563;52.416;13.548;2024-01-07T03:23:24;101555.06;;;-2.91;100.00
68594;BME280;55563;52.416;13.548;2024-01-07T03:25:25;101550.00;;;-3.01;100.00
68594;BME280;55563;52.416;13.548;2024-01-07T03:27:25;101552.56;;;-3.01;100.00
68594;BME280;55563;52.416;13.548;2024-01-07T03:29:26;101574.25;;;-3.03;100.00
68594;BME280;55563;52.416;13.548;2024-01-07T03:31:26;101566.31;;;-2.92;100.00
68594;BME280;55563;52.416;13.548;2024-01-07T03:33:27;101563.81;;;-3.02;100.00
68594;BME280;55563;52.416;13.548;2024-01-07T03:35:27;101565.34;;;-2.91;100.00
68594;BME280;55563;52.416;13.548;2024-01-07T03:37:28;101566.31;;;-2.92;100.00
68594;BME280;55563;52.416;13.548;2024-01-07T03:39:31;101555.31;;;-3.02;100.00
68594;BME280;55563;52.416;13.548;2024-01-07T03:41:32;101567.56;;;-2.96;100.00
68594;BME280;55563;52.416;13.548;2024-01-07T03:43:33;101572.94;;;-3.08;100.00
68594;BME280;55563;52.416;13.548;2024-01-07T03:45:34;101567.25;;;-3.11;100.00
68594;BME280;55563;52.416;13.548;2024-01-07T03:47:34;101556.34;;;-3.13;100.00
68594;BME280;55563;52.416;13.548;2024-01-07T03:49:36;101557.16;;;-3.13;100.00
68594;BME280;55563;52.416;13.548;2024-01-07T03:51:37;101579.09;;;-3.18;100.00
68594;BME280;55563;52.416;13.548;2024-01-07T03:53:38;101589.91;;;-3.15;100.00
68594;BME280;55563;52.416;13.548;2024-01-07T03:55:39;101581.66;;;-3.18;100.00
68594;BME280;55563;52.416;13.548;2024-01-07T03:57:39;101586.50;;;-3.15;100.00
68594;BME280;55563;52.416;13.548;2024-01-07T03:59:40;101587.31;;;-3.15;100.00
68594;BME280;55563;52.416;13.548;2024-01-07T04:01:40;101599.78;;;-3.20;100.00
68594;BME280;55563;52.416;13.548;2024-01-07T04:03:41;101604.66;;;-3.17;100.00
68594;BME280;55563;52.416;13.548;2024-01-07T04:05:42;101618.22;;;-3.24;100.00
68594;BME280;55563;52.416;13.548;2024-01-07T04:07:42;101607.94;;;-3.24;100.00
68594;BME280;55563;52.416;13.548;2024-01-07T04:09:43;101611.19;;;-3.22;100.00
68594;BME280;55563;52.416;13.548;2024-01-07T04:11:44;101610.75;;;-3.18;100.00
68594;BME280;55563;52.416;13.548;2024-01-07T04:13:45;101623.44;;;-3.16;100.00
68594;BME280;55563;52.416;13.548;2024-01-07T04:15:46;101631.38;;;-3.27;100.00
68594;BME280;55563;52.416;13.548;2024-01-07T04:17:46;101637.84;;;-3.23;100.00
68594;BME280;55563;52.416;13.548;2024-01-07T04:19:47;101626.25;;;-3.27;100.00
68594;BME280;55563;52.416;13.548;2024-01-07T04:21:47;101633.69;;;-3.34;100.00
68594;BME280;55563;52.416;13.548;2024-01-07T04:23:48;101622.47;;;-3.33;100.00
68594;BME280;55563;52.416;13.548;2024-01-07T04:25:49;101634.47;;;-3.24;100.00
68594;BME280;55563;52.416;13.548;2024-01-07T04:27:49;101628.44;;;-3.32;100.00
68594;BME280;55563;52.416;13.548;2024-01-07T04:29:50;101632.63;;;-3.31;100.00
68594;BME280;55563;52.416;13.548;2024-01-07T04:31:51;101639.66;;;-3.33;100.00
68594;BME280;55563;52.416;13.548;2024-01-07T04:33:51;101641.41;;;-3.34;100.00
68594;BME280;55563;52.416;13.548;2024-01-07T04:35:52;101652.50;;;-3.33;100.00
68594;BME280;55563;52.416;13.548;2024-01-07T04:37:52;101653.19;;;-3.31;100.00
68594;BME280;55563;52.416;13.548;2024-01-07T04:39:53;101638.19;;;-3.36;100.00
68594;BME280;55563;52.416;13.548;2024-01-07T04:41:54;101638.72;;;-3.32;100.00
68594;BME280;55563;52.416;13.548;2024-01-07T04:43:54;101639.13;;;-3.37;100.00
68594;BME280;55563;52.416;13.548;2024-01-07T04:45:55;101640.84;;;-3.28;100.00
68594;BME280;55563;52.416;13.548;2024-01-07T04:47:55;101644.28;;;-3.37;100.00
68594;BME280;55563;52.416;13.548;2024-01-07T04:49:57;101644.41;;;-3.38;100.00
68594;BME280;55563;52.416;13.548;2024-01-07T04:51:58;101638.97;;;-3.35;100.00
68594;BME280;55563;52.416;13.548;2024-01-07T04:53:59;101655.22;;;-3.35;100.00
68594;BME280;55563;52.416;13.548;2024-01-07T04:55:59;101654.69;;;-3.38;100.00
68594;BME280;55563;52.416;13.548;2024-01-07T04:58:00;101658.75;;;-3.36;100.00
68594;BME280;55563;52.416;13.548;2024-01-07T05:00:02;101656.56;;;-3.40;100.00
68594;BME280;55563;52.416;13.548;2024-01-07T05:02:03;101659.09;;;-3.31;100.00
68594;BME280;55563;52.416;13.548;2024-01-07T05:04:04;101649.25;;;-3.35;100.00
68594;BME280;55563;52.416;13.548;2024-01-07T05:06:05;101653.44;;;-3.34;100.00
68594;BME280;55563;52.416;13.548;2024-01-07T05:08:08;101654.69;;;-3.38;100.00
68594;BME280;55563;52.416;13.548;2024-01-07T05:10:09;101661.88;;;-3.42;100.00
68594;BME280;55563;52.416;13.548;2024-01-07T05:12:09;101669.28;;;-3.39;100.00
68594;BME280;55563;52.416;13.548;2024-01-07T05:14:11;101665.06;;;-3.30;100.00
68594;BME280;55563;52.416;13.548;2024-01-07T05:16:19;101657.25;;;-3.38;100.00
68594;BME280;55563;52.416;13.548;2024-01-07T05:18:21;101664.28;;;-3.40;100.00
68594;BME280;55563;52.416;13.548;2024-01-07T05:20:21;101664.72;;;-3.45;100.00
68594;BME280;55563;52.416;13.548;2024-01-07T05:22:22;101670.25;;;-3.40;100.00
68594;BME280;55563;52.416;13.548;2024-01-07T05:24:22;101673.50;;;-3.38;100.00
68594;BME280;55563;52.416;13.548;2024-01-07T05:26:23;101681.63;;;-3.42;100.00
68594;BME280;55563;52.416;13.548;2024-01-07T05:28:24;101683.34;;;-3.33;100.00
68594;BME280;55563;52.416;13.548;2024-01-07T05:30:24;101684.81;;;-3.31;100.00
68594;BME280;55563;52.416;13.548;2024-01-07T05:32:25;101677.31;;;-3.42;100.00
68594;BME280;55563;52.416;13.548;2024-01-07T05:34:26;101676.34;;;-3.41;100.00
68594;BME280;55563;52.416;13.548;2024-01-07T05:36:27;101680.28;;;-3.46;100.00
68594;BME280;55563;52.416;13.548;2024-01-07T05:38:27;101689.88;;;-3.48;100.00
68594;BME280;55563;52.416;13.548;2024-01-07T05:40:28;101699.22;;;-3.47;100.00
68594;BME280;55563;52.416;13.548;2024-01-07T05:42:29;101698.00;;;-3.43;100.00
68594;BME280;55563;52.416;13.548;2024-01-07T05:44:29;101700.44;;;-3.42;100.00
68594;BME280;55563;52.416;13.548;2024-01-07T05:46:30;101703.56;;;-3.48;100.00
68594;BME280;55563;52.416;13.548;2024-01-07T05:48:42;101698.94;;;-3.44;100.00
68594;BME280;55563;52.416;13.548;2024-01-07T05:50:43;101698.81;;;-3.43;100.00
68594;BME280;55563;52.416;13.548;2024-01-07T05:52:44;101700.59;;;-3.53;100.00
68594;BME280;55563;52.416;13.548;2024-01-07T05:54:45;101714.94;;;-3.50;100.00
68594;BME280;55563;52.416;13.548;2024-01-07T05:56:46;101706.44;;;-3.61;100.00
68594;BME280;55563;52.416;13.548;2024-01-07T05:58:46;101718.47;;;-3.61;100.00
68594;BME280;55563;52.416;13.548;2024-01-07T06:00:47;101718.16;;;-3.48;100.00
68594;BME280;55563;52.416;13.548;2024-01-07T06:02:47;101721.16;;;-3.53;100.00
68594;BME280;55563;52.416;13.548;2024-01-07T06:04:48;101715.63;;;-3.58;100.00
68594;BME280;55563;52.416;13.548;2024-01-07T06:06:49;101729.16;;;-3.56;100.00
68594;BME280;55563;52.416;13.548;2024-01-07T06:08:49;101722.25;;;-3.56;100.00
68594;BME280;55563;52.416;13.548;2024-01-07T06:10:50;101721.16;;;-3.63;100.00
68594;BME280;55563;52.416;13.548;2024-01-07T06:12:50;101724.66;;;-3.54;100.00
68594;BME280;55563;52.416;13.548;2024-01-07T06:14:51;101729.69;;;-3.62;100.00
68594;BME280;55563;52.416;13.548;2024-01-07T06:16:52;101732.13;;;-3.61;100.00
68594;BME280;55563;52.416;13.548;2024-01-07T06:18:52;101739.44;;;-3.66;100.00
68594;BME280;55563;52.416;13.548;2024-01-07T06:20:53;101746.31;;;-3.57;100.00
68594;BME280;55563;52.416;13.548;2024-01-07T06:22:54;101747.00;;;-3.64;100.00
68594;BME280;55563;52.416;13.548;2024-01-07T06:24:54;101754.84;;;-3.56;100.00
68594;BME280;55563;52.416;13.548;2024-01-07T06:26:55;101754.84;;;-3.66;100.00
68594;BME280;55563;52.416;13.548;2024-01-07T06:28:55;101747.94;;;-3.56;100.00
68594;BME280;55563;52.416;13.548;2024-01-07T06:30:56;101748.88;;;-3.57;100.00
68594;BME280;55563;52.416;13.548;2024-01-07T06:32:56;101759.69;;;-3.63;100.00
68594;BME280;55563;52.416;13.548;2024-01-07T06:34:57;101759.69;;;-3.63;100.00
68594;BME280;55563;52.416;13.548;2024-01-07T06:36:58;101753.34;;;-3.59;100.00
68594;BME280;55563;52.416;13.548;2024-01-07T06:38:58;101751.88;;;-3.61;100.00
68594;BME280;55563;52.416;13.548;2024-01-07T06:40:59;101752.28;;;-3.66;100.00
68594;BME280;55563;52.416;13.548;2024-01-07T06:43:02;101751.47;;;-3.66;100.00
68594;BME280;55563;52.416;13.548;2024-01-07T06:45:03;101748.78;;;-3.65;100.00
68594;BME280;55563;52.416;13.548;2024-01-07T06:47:04;101763.09;;;-3.62;100.00
68594;BME280;55563;52.416;13.548;2024-01-07T06:49:04;101760.41;;;-3.70;100.00
68594;BME280;55563;52.416;13.548;2024-01-07T06:51:05;101761.75;;;-3.76;100.00
68594;BME280;55563;52.416;13.548;2024-01-07T06:53:05;101768.13;;;-3.70;100.00
68594;BME280;55563;52.416;13.548;2024-01-07T06:55:07;101766.06;;;-3.67;100.00
68594;BME280;55563;52.416;13.548;2024-01-07T06:57:07;101770.28;;;-3.75;100.00
68594;BME280;55563;52.416;13.548;2024-01-07T06:59:08;101771.09;;;-3.75;100.00
68594;BME280;55563;52.416;13.548;2024-01-07T07:01:08;101766.59;;;-3.63;100.00
68594;BME280;55563;52.416;13.548;2024-01-07T07:03:09;101769.59;;;-3.68;100.00
68594;BME280;55563;52.416;13.548;2024-01-07T07:05:09;101762.97;;;-3.70;100.00
68594;BME280;55563;52.416;13.548;2024-01-07T07:07:10;101771.34;;;-3.68;100.00
68594;BME280;55563;52.416;13.548;2024-01-07T07:09:11;101777.03;;;-3.65;100.00
68594;BME280;55563;52.416;13.548;2024-01-07T07:11:13;101779.44;;;-3.63;100.00
68594;BME280;55563;52.416;13.548;2024-01-07T07:13:13;101772.53;;;-3.63;100.00
68594;BME280;55563;52.416;13.548;2024-01-07T07:15:15;101781.47;;;-3.67;100.00
68594;BME280;55563;52.416;13.548;2024-01-07T07:17:15;101774.69;;;-3.58;100.00
68594;BME280;55563;52.416;13.548;2024-01-07T07:19:16;101780.94;;;-3.61;100.00
68594;BME280;55563;52.416;13.548;2024-01-07T07:21:17;101784.31;;;-3.60;100.00
68594;BME280;55563;52.416;13.548;2024-01-07T07:23:18;101781.06;;;-3.62;100.00
68594;BME280;55563;52.416;13.548;2024-01-07T07:25:18;101784.97;;;-3.48;100.00
68594;BME280;55563;52.416;13.548;2024-01-07T07:27:19;101792.81;;;-3.60;100.00
68594;BME280;55563;52.416;13.548;2024-01-07T07:29:19;101789.97;;;-3.47;100.00
68594;BME280;55563;52.416;13.548;2024-01-07T07:31:20;101793.06;;;-3.43;100.00
68594;BME280;55563;52.416;13.548;2024-01-07T07:33:20;101798.72;;;-3.40;100.00
68594;BME280;55563;52.416;13.548;2024-01-07T07:35:21;101800.91;;;-3.45;100.00
68594;BME280;55563;52.416;13.548;2024-01-07T07:37:21;101808.78;;;-3.46;100.00
68594;BME280;55563;52.416;13.548;2024-01-07T07:39:22;101809.97;;;-3.41;100.00
68594;BME280;55563;52.416;13.548;2024-01-07T07:41:23;101808.09;;;-3.48;100.00
68594;BME280;55563;52.416;13.548;2024-01-07T07:43:23;101810.22;;;-3.34;100.00
68594;BME280;55563;52.416;13.548;2024-01-07T07:45:25;101812.78;;;-3.34;100.00
68594;BME280;55563;52.416;13.548;2024-01-07T07:47:25;101809.44;;;-3.44;100.00
68594;BME280;55563;52.416;13.548;2024-01-07T07:49:26;101819.94;;;-3.28;100.00
68594;BME280;55563;52.416;13.548;2024-01-07T07:51:27;101814.81;;;-3.28;100.00
68594;BME280;55563;52.416;13.548;2024-01-07T07:53:28;101820.91;;;-3.29;100.00
68594;BME280;55563;52.416;13.548;2024-01-07T07:55:29;101824.69;;;-3.24;100.00
68594;BME280;55563;52.416;13.548;2024-01-07T07:57:29;101822.22;;;-3.25;100.00
68594;BME280;55563;52.416;13.548;2024-01-07T07:59:30;101825.78;;;-3.26;100.00
68594;BME280;55563;52.416;13.548;2024-01-07T08:01:30;101822.38;;;-3.17;100.00
68594;BME280;55563;52.416;13.548;2024-01-07T08:03:31;101836.69;;;-3.15;100.00
68594;BME280;55563;52.416;13.548;2024-01-07T08:05:32;101831.94;;;-3.10;100.00
68594;BME280;55563;52.416;13.548;2024-01-07T08:07:32;101831.53;;;-3.05;100.00
68594;BME280;55563;52.416;13.548;2024-01-07T08:09:33;101841.53;;;-3.02;100.00
68594;BME280;55563;52.416;13.548;2024-01-07T08:11:36;101840.34;;;-3.08;100.00
68594;BME280;55563;52.416;13.548;2024-01-07T08:13:37;101829.78;;;-3.14;100.00
68594;BME280;55563;52.416;13.548;2024-01-07T08:15:38;101843.53;;;-2.96;100.00
68594;BME280;55563;52.416;13.548;2024-01-07T08:17:38;101842.63;;;-3.04;100.00
68594;BME280;55563;52.416;13.548;2024-01-07T08:19:39;101847.47;;;-3.01;100.00
68594;BME280;55563;52.416;13.548;2024-01-07T08:21:40;101842.97;;;-2.90;100.00
68594;BME280;55563;52.416;13.548;2024-01-07T08:23:40;101844.34;;;-2.95;100.00
68594;BME280;55563;52.416;13.548;2024-01-07T08:25:41;101843.69;;;-2.97;100.00
68594;BME280;55563;52.416;13.548;2024-01-07T08:27:42;101849.16;;;-2.83;100.00
68594;BME280;55563;52.416;13.548;2024-01-07T08:29:44;101855.69;;;-2.79;100.00
68594;BME280;55563;52.416;13.548;2024-01-07T08:31:44;101858.78;;;-2.75;100.00
68594;BME280;55563;52.416;13.548;2024-01-07T08:33:45;101848.66;;;-2.86;100.00
68594;BME280;55563;52.416;13.548;2024-01-07T08:35:46;101860.53;;;-2.76;100.00
68594;BME280;55563;52.416;13.548;2024-01-07T08:37:46;101858.63;;;-2.74;100.00
68594;BME280;55563;52.416;13.548;2024-01-07T08:39:47;101867.53;;;-2.68;100.00
68594;BME280;55563;52.416;13.548;2024-01-07T08:41:47;101859.03;;;-2.69;100.00
68594;BME280;55563;52.416;13.548;2024-01-07T08:43:48;101870.25;;;-2.70;100.00
68594;BME280;55563;52.416;13.548;2024-01-07T08:45:48;101861.31;;;-2.66;100.00
68594;BME280;55563;52.416;13.548;2024-01-07T08:47:49;101869.31;;;-2.69;100.00
68594;BME280;55563;52.416;13.548;2024-01-07T08:49:50;101865.38;;;-2.73;100.00
68594;BME280;55563;52.416;13.548;2024-01-07T08:51:54;101859.13;;;-2.60;100.00
68594;BME280;55563;52.416;13.548;2024-01-07T08:53:57;101854.09;;;-2.62;100.00
68594;BME280;55563;52.416;13.548;2024-01-07T08:55:58;101855.59;;;-2.59;100.00
68594;BME280;55563;52.416;13.548;2024-01-07T08:57:59;101854.34;;;-2.55;100.00
68594;BME280;55563;52.416;13.548;2024-01-07T09:00:00;101850.97;;;-2.56;100.00
68594;BME280;55563;52.416;13.548;2024-01-07T09:02:00;101844.22;;;-2.39;100.00
68594;BME280;55563;52.416;13.548;2024-01-07T09:04:01;101855.94;;;-2.45;100.00
68594;BME280;55563;52.416;13.548;2024-01-07T09:06:01;101847.09;;;-2.42;100.00
68594;BME280;55563;52.416;13.548;2024-01-07T09:08:03;101846.16;;;-2.41;100.00
68594;BME280;55563;52.416;13.548;2024-01-07T09:10:04;101866.38;;;-2.46;100.00
68594;BME280;55563;52.416;13.548;2024-01-07T09:12:09;101862.84;;;-2.45;100.00
68594;BME280;55563;52.416;13.548;2024-01-07T09:14:09;101863.22;;;-2.40;100.00
68594;BME280;55563;52.416;13.548;2024-01-07T09:16:10;101866.06;;;-2.43;100.00
68594;BME280;55563;52.416;13.548;2024-01-07T09:18:11;101865.25;;;-2.44;100.00
68594;BME280;55563;52.416;13.548;2024-01-07T09:20:12;101867.78;;;-2.34;100.00
68594;BME280;55563;52.416;13.548;2024-01-07T09:22:13;101879.06;;;-2.35;100.00
68594;BME280;55563;52.416;13.548;2024-01-07T09:24:14;101876.56;;;-2.27;100.00
68594;BME280;55563;52.416;13.548;2024-01-07T09:26:14;101881.41;;;-2.24;100.00
68594;BME280;55563;52.416;13.548;2024-01-07T09:28:15;101881.28;;;-2.23;100.00
68594;BME280;55563;52.416;13.548;2024-01-07T09:30:15;101883.34;;;-2.26;100.00
68594;BME280;55563;52.416;13.548;2024-01-07T09:32:17;101868.78;;;-2.17;100.00
68594;BME280;55563;52.416;13.548;2024-01-07T09:34:18;101872.81;;;-2.15;100.00
68594;BME280;55563;52.416;13.548;2024-01-07T09:36:18;101875.63;;;-2.08;100.00
68594;BME280;55563;52.416;13.548;2024-01-07T09:38:19;101872.94;;;-2.07;100.00
68594;BME280;55563;52.416;13.548;2024-01-07T09:40:20;101873.63;;;-2.14;100.00
68594;BME280;55563;52.416;13.548;2024-01-07T09:42:20;101871.81;;;-2.04;100.00
68594;BME280;55563;52.416;13.548;2024-01-07T09:44:21;101866.72;;;-2.14;100.00
68594;BME280;55563;52.416;13.548;2024-01-07T09:46:22;101870.94;;;-2.13;100.00
68594;BME280;55563;52.416;13.548;2024-01-07T09:48:23;101865.19;;;-2.07;100.00
68594;BME280;55563;52.416;13.548;2024-01-07T09:50:23;101866.09;;;-1.98;100.00
68594;BME280;55563;52.416;13.548;2024-01-07T09:52:25;101871.50;;;-2.01;100.00
68594;BME280;55563;52.416;13.548;2024-01-07T09:54:26;101868.28;;;-2.03;100.00
68594;BME280;55563;52.416;13.548;2024-01-07T09:56:35;101864.09;;;-2.04;100.00
68594;BME280;55563;52.416;13.548;2024-01-07T09:58:36;101869.09;;;-2.03;100.00
68594;BME280;55563;52.416;13.548;2024-01-07T10:00:37;101863.59;;;-1.90;100.00
68594;BME280;55563;52.416;13.548;2024-01-07T10:02:39;101869.31;;;-1.96;100.00
68594;BME280;55563;52.416;13.548;2024-01-07T10:04:41;101871.75;;;-1.95;100.00
68594;BME280;55563;52.416;13.548;2024-01-07T10:06:42;101876.59;;;-1.92;100.00
68594;BME280;55563;52.416;13.548;2024-01-07T10:08:43;101874.19;;;-1.93;100.00
68594;BME280;55563;52.416;13.548;2024-01-07T10:10:43;101872.94;;;-1.89;100.00
68594;BME280;55563;52.416;13.548;2024-01-07T10:12:45;101870.22;;;-1.88;100.00
68594;BME280;55563;52.416;13.548;2024-01-07T10:14:47;101882.28;;;-1.88;100.00